createdAt,value
2023-05-06T00:01:20.492Z,6.72
2023-05-06T00:03:48.049Z,5.97
2023-05-06T00:06:15.277Z,6.85
2023-05-06T00:08:42.195Z,6.47
2023-05-06T00:11:09.075Z,6.40
2023-05-06T00:13:36.071Z,4.97
2023-05-06T00:16:02.917Z,4.18
2023-05-06T00:18:29.792Z,5.05
2023-05-06T00:20:56.848Z,6.45
2023-05-06T00:23:23.663Z,4.78
2023-05-06T00:25:50.665Z,5.32
2023-05-06T00:28:17.478Z,4.68
2023-05-06T00:30:44.367Z,4.80
2023-05-06T00:33:11.315Z,5.15
2023-05-06T00:35:38.195Z,6.30
2023-05-06T00:38:10.067Z,5.50
2023-05-06T00:40:37.260Z,5.85
2023-05-06T00:43:04.437Z,6.65
2023-05-06T00:45:31.836Z,6.45
2023-05-06T00:47:59.439Z,6.00
2023-05-06T00:50:31.411Z,4.70
2023-05-06T00:52:59.559Z,4.22
2023-05-06T00:55:27.511Z,5.03
2023-05-06T00:57:54.990Z,4.32
2023-05-06T01:00:21.955Z,4.75
2023-05-06T01:02:49.671Z,4.10
2023-05-06T01:05:18.412Z,4.20
2023-05-06T01:08:11.245Z,5.12
2023-05-06T01:10:53.777Z,5.30
2023-05-06T01:13:45.568Z,4.25
2023-05-06T01:16:14.662Z,4.85
2023-05-06T01:18:43.752Z,6.75
2023-05-06T01:21:12.916Z,7.32
2023-05-06T01:23:52.739Z,5.93
2023-05-06T01:28:46.281Z,5.22
2023-05-06T01:31:17.523Z,6.10
2023-05-06T01:33:54.404Z,5.53
2023-05-06T01:37:02.767Z,4.87
2023-05-06T01:39:32.291Z,5.30
2023-05-06T01:42:02.403Z,6.93
2023-05-06T01:44:33.639Z,5.22
2023-05-06T01:47:01.642Z,6.37
2023-05-06T01:49:30.112Z,7.03
2023-05-06T01:51:58.082Z,6.60
2023-05-06T01:54:24.946Z,6.43
2023-05-06T01:56:51.748Z,6.32
2023-05-06T01:59:18.592Z,6.12
2023-05-06T02:01:45.667Z,7.37
2023-05-06T02:04:12.523Z,6.97
2023-05-06T02:06:39.365Z,6.20
2023-05-06T02:09:06.467Z,6.53
2023-05-06T02:11:33.301Z,6.40
2023-05-06T02:14:00.214Z,6.55
2023-05-06T02:16:29.874Z,6.65
2023-05-06T02:18:56.769Z,6.72
2023-05-06T02:21:24.044Z,5.60
2023-05-06T02:23:50.988Z,5.30
2023-05-06T02:26:17.853Z,5.80
2023-05-06T02:28:44.718Z,6.60
2023-05-06T02:31:17.829Z,5.20
2023-05-06T02:33:46.098Z,3.83
2023-05-06T02:36:12.935Z,6.28
2023-05-06T02:38:39.762Z,5.12
2023-05-06T02:41:06.655Z,6.15
2023-05-06T02:43:33.540Z,7.03
2023-05-06T02:46:00.497Z,5.55
2023-05-06T02:48:27.407Z,5.90
2023-05-06T02:50:54.259Z,5.12
2023-05-06T02:53:21.202Z,6.00
2023-05-06T02:55:48.081Z,4.47
2023-05-06T02:58:14.882Z,6.05
2023-05-06T03:00:41.705Z,5.20
2023-05-06T03:03:10.129Z,6.30
2023-05-06T03:05:36.986Z,6.05
2023-05-06T03:08:04.073Z,7.35
2023-05-06T03:10:31.129Z,5.87
2023-05-06T03:12:57.944Z,6.22
2023-05-06T03:15:24.851Z,7.40
2023-05-06T03:17:51.874Z,5.87
2023-05-06T03:20:19.003Z,7.07
2023-05-06T03:22:45.926Z,6.87
2023-05-06T03:25:12.879Z,7.10
2023-05-06T03:27:39.768Z,7.20
2023-05-06T03:30:07.172Z,6.70
2023-05-06T03:32:34.275Z,6.90
2023-05-06T03:35:01.097Z,5.75
2023-05-06T03:37:27.900Z,5.60
2023-05-06T03:39:54.727Z,6.05
2023-05-06T03:42:21.800Z,6.72
2023-05-06T03:44:48.610Z,6.90
2023-05-06T03:47:15.540Z,7.30
2023-05-06T03:49:42.345Z,6.57
2023-05-06T03:52:10.633Z,6.85
2023-05-06T03:54:37.478Z,6.35
2023-05-06T03:57:04.378Z,7.03
2023-05-06T03:59:31.299Z,8.07
2023-05-06T04:01:58.144Z,8.40
2023-05-06T04:04:27.466Z,7.80
2023-05-06T04:06:54.416Z,8.30
2023-05-06T04:09:21.199Z,7.95
2023-05-06T04:11:48.000Z,7.75
2023-05-06T04:14:14.828Z,8.40
2023-05-06T04:16:41.783Z,7.70
2023-05-06T04:19:09.410Z,7.75
2023-05-06T04:21:36.229Z,9.40
2023-05-06T04:24:03.098Z,8.50
2023-05-06T04:26:29.921Z,7.72
2023-05-06T04:28:56.727Z,8.23
2023-05-06T04:31:24.188Z,7.57
2023-05-06T04:33:51.046Z,6.30
2023-05-06T04:36:19.061Z,5.85
2023-05-06T04:38:47.441Z,6.57
2023-05-06T04:41:14.398Z,6.60
2023-05-06T04:43:41.790Z,5.87
2023-05-06T04:46:08.727Z,5.90
2023-05-06T04:48:35.643Z,6.18
2023-05-06T04:51:04.535Z,5.95
2023-05-06T04:53:31.974Z,6.67
2023-05-06T04:55:58.807Z,6.75
2023-05-06T04:58:25.731Z,6.90
2023-05-06T05:00:52.552Z,6.43
2023-05-06T05:03:19.533Z,6.30
2023-05-06T05:05:46.596Z,7.20
2023-05-06T05:08:13.611Z,7.18
2023-05-06T05:10:43.820Z,7.07
2023-05-06T05:13:10.716Z,6.53
2023-05-06T05:15:40.669Z,6.85
2023-05-06T05:18:07.564Z,7.10
2023-05-06T05:20:34.636Z,7.37
2023-05-06T05:23:01.648Z,9.05
2023-05-06T05:25:28.648Z,11.48
2023-05-06T05:27:55.503Z,10.13
2023-05-06T05:30:22.382Z,10.38
2023-05-06T05:32:49.298Z,10.13
2023-05-06T05:35:16.352Z,9.45
2023-05-06T05:37:43.197Z,9.05
2023-05-06T05:40:10.307Z,8.02
2023-05-06T05:42:37.160Z,8.10
2023-05-06T05:45:04.299Z,8.02
2023-05-06T05:47:31.154Z,9.15
2023-05-06T05:49:58.045Z,8.98
2023-05-06T05:52:24.924Z,8.65
2023-05-06T05:54:51.880Z,7.80
2023-05-06T05:57:18.766Z,7.78
2023-05-06T05:59:45.647Z,7.20
2023-05-06T06:02:12.636Z,7.72
2023-05-06T06:04:39.508Z,7.93
2023-05-06T06:07:06.663Z,7.82
2023-05-06T06:09:34.740Z,9.07
2023-05-06T06:12:02.190Z,6.82
2023-05-06T06:14:29.036Z,7.60
2023-05-06T06:16:55.904Z,7.45
2023-05-06T06:19:22.787Z,6.82
2023-05-06T06:21:49.725Z,7.95
2023-05-06T06:24:16.565Z,7.25
2023-05-06T06:26:43.442Z,6.75
2023-05-06T06:29:10.330Z,7.30
2023-05-06T06:31:39.763Z,7.07
2023-05-06T06:34:09.131Z,7.93
2023-05-06T06:36:36.007Z,7.32
2023-05-06T06:39:02.848Z,7.90
2023-05-06T06:41:29.677Z,7.62
2023-05-06T06:43:56.600Z,7.45
2023-05-06T06:46:23.726Z,6.80
2023-05-06T06:48:50.723Z,7.50
2023-05-06T06:51:17.574Z,7.72
2023-05-06T06:53:44.394Z,7.18
2023-05-06T06:56:14.700Z,8.27
2023-05-06T06:58:41.785Z,8.63
2023-05-06T07:01:09.005Z,8.38
2023-05-06T07:03:35.968Z,7.37
2023-05-06T07:06:02.926Z,8.20
2023-05-06T07:08:30.058Z,8.18
2023-05-06T07:10:56.951Z,8.00
2023-05-06T07:13:23.857Z,8.50
2023-05-06T07:15:50.750Z,9.70
2023-05-06T07:18:17.654Z,8.68
2023-05-06T07:20:44.620Z,6.87
2023-05-06T07:23:11.521Z,7.45
2023-05-06T07:25:38.407Z,7.87
2023-05-06T07:28:05.953Z,8.25
2023-05-06T07:30:32.781Z,7.25
2023-05-06T07:32:59.759Z,8.20
2023-05-06T07:35:26.691Z,7.37
2023-05-06T07:37:53.547Z,8.45
2023-05-06T07:40:20.361Z,6.82
2023-05-06T07:42:47.214Z,7.50
2023-05-06T07:45:15.364Z,6.85
2023-05-06T07:47:42.329Z,6.82
2023-05-06T07:50:10.749Z,7.15
2023-05-06T07:52:37.544Z,6.70
2023-05-06T07:55:05.376Z,6.80
2023-05-06T07:57:32.219Z,6.95
2023-05-06T07:59:59.030Z,6.85
2023-05-06T08:02:27.330Z,6.45
2023-05-06T08:04:54.322Z,5.80
2023-05-06T08:07:21.470Z,6.25
2023-05-06T08:09:48.382Z,6.00
2023-05-06T08:12:16.307Z,5.60
2023-05-06T08:14:43.201Z,5.75
2023-05-06T08:17:10.155Z,5.30
2023-05-06T08:19:37.015Z,5.40
2023-05-06T08:22:03.827Z,5.15
2023-05-06T08:24:30.673Z,5.60
2023-05-06T08:26:57.625Z,5.57
2023-05-06T08:29:24.463Z,5.35
2023-05-06T08:31:51.351Z,5.30
2023-05-06T08:34:20.387Z,5.22
2023-05-06T08:36:48.667Z,5.97
2023-05-06T08:39:15.721Z,6.10
2023-05-06T08:41:48.662Z,5.62
2023-05-06T08:44:18.808Z,5.47
2023-05-06T08:46:47.070Z,6.22
2023-05-06T08:49:14.097Z,5.78
2023-05-06T08:51:43.955Z,4.87
2023-05-06T08:54:13.878Z,5.57
2023-05-06T08:56:47.611Z,5.18
2023-05-06T08:59:14.570Z,4.78
2023-05-06T09:01:41.613Z,4.62
2023-05-06T09:04:09.400Z,4.80
2023-05-06T09:06:36.551Z,4.20
2023-05-06T09:09:03.761Z,4.45
2023-05-06T09:11:31.044Z,4.12
2023-05-06T09:14:17.975Z,4.32
2023-05-06T09:16:50.394Z,3.83
2023-05-06T09:19:19.212Z,4.12
2023-05-06T09:21:48.500Z,3.92
